Dixon Springs, Illinois
Current Conditions -  °F | °C
As of 4:15 AM on Tuesday 27 Jan 2015 (Local Time) from KM30 Reporting Station
Scattered Clouds Scattered Clouds  
Wind Chill: 30°   Ceiling: Unl
Heat Index: 35°   Visibility: 7mi
Dew Point: 33°   Wind: 6mph
Humidity: 91%   Direction: 270°W
Pressure: 29.93"   Gusts: NA
Location:  37.3798°N, 88.7652°W
Report Text: KM30 271015Z AUTO 27005KT 7SM SCT055 02/00 A2993 RMK AO2 T00170004
Loading
Personal Weather Stations






























Interactive Weather Map New forecast layout! Learn more

10-Day Weather Forecast

Advertisements
Track Severe Weather on mobile